createdAt,value
2018-08-03T00:04:50.033Z,24.30
2018-08-03T00:09:53.237Z,24.30
2018-08-03T00:14:56.408Z,24.30
2018-08-03T00:19:59.601Z,24.20
2018-08-03T00:25:02.785Z,24.20
2018-08-03T00:30:06.518Z,24.10
2018-08-03T00:35:16.000Z,24.10
2018-08-03T00:45:23.317Z,23.90
2018-08-03T00:50:26.497Z,23.80
2018-08-03T00:55:29.670Z,23.80
2018-08-03T01:00:32.840Z,23.80
2018-08-03T01:05:36.005Z,23.80
2018-08-03T01:10:39.517Z,23.70
2018-08-03T01:15:42.665Z,23.60
2018-08-03T01:20:45.817Z,23.40
2018-08-03T01:25:48.997Z,23.40
2018-08-03T01:30:52.182Z,23.30
2018-08-03T01:35:55.413Z,23.30
2018-08-03T01:40:58.562Z,23.30
2018-08-03T01:46:01.737Z,23.10
2018-08-03T01:51:04.929Z,23.10
2018-08-03T01:56:08.135Z,23.00
2018-08-03T02:01:11.473Z,23.00
2018-08-03T02:06:14.625Z,23.00
2018-08-03T02:11:18.259Z,22.90
2018-08-03T02:16:21.542Z,22.80
2018-08-03T02:21:24.717Z,22.80
2018-08-03T02:26:27.898Z,22.80
2018-08-03T02:31:31.081Z,22.70
2018-08-03T02:36:34.257Z,22.70
2018-08-03T02:41:37.629Z,22.60
2018-08-03T02:46:40.801Z,22.50
2018-08-03T02:51:43.992Z,22.50
2018-08-03T02:56:47.165Z,22.40
2018-08-03T03:01:50.329Z,22.30
2018-08-03T03:06:53.534Z,22.40
2018-08-03T03:11:56.713Z,22.30
2018-08-03T03:16:59.901Z,22.20
2018-08-03T03:22:03.080Z,22.20
2018-08-03T03:27:06.258Z,22.30
2018-08-03T03:32:09.425Z,22.20
2018-08-03T03:37:12.617Z,22.20
2018-08-03T03:42:15.800Z,22.20
2018-08-03T03:47:18.986Z,22.10
2018-08-03T03:52:22.186Z,22.10
2018-08-03T03:57:25.737Z,22.10
2018-08-03T04:02:28.910Z,22.10
2018-08-03T04:07:32.087Z,22.00
2018-08-03T04:12:35.255Z,21.90
2018-08-03T04:17:38.422Z,21.90
2018-08-03T04:22:41.597Z,21.80
2018-08-03T04:27:44.773Z,21.80
2018-08-03T04:32:47.957Z,21.70
2018-08-03T04:37:51.152Z,21.80
2018-08-03T04:42:54.355Z,21.80
2018-08-03T04:47:57.530Z,21.80
2018-08-03T04:53:00.733Z,21.60
2018-08-03T04:58:03.988Z,21.80
2018-08-03T05:03:07.435Z,21.80
2018-08-03T05:08:10.586Z,21.80
2018-08-03T05:13:13.929Z,22.00
2018-08-03T05:18:17.197Z,22.00
2018-08-03T05:23:20.502Z,22.00
2018-08-03T05:28:23.797Z,22.10
2018-08-03T05:33:29.014Z,22.00
2018-08-03T05:38:32.303Z,22.10
2018-08-03T05:43:35.498Z,22.10
2018-08-03T05:48:38.767Z,22.30
2018-08-03T05:53:42.031Z,22.40
2018-08-03T05:58:45.251Z,22.60
2018-08-03T06:03:49.150Z,22.60
2018-08-03T06:08:52.608Z,22.70
2018-08-03T06:13:55.787Z,22.80
2018-08-03T06:18:58.991Z,22.90
2018-08-03T06:24:03.232Z,23.10
2018-08-03T06:29:06.437Z,23.20
2018-08-03T06:34:09.624Z,23.30
2018-08-03T06:39:12.825Z,23.50
2018-08-03T06:44:16.014Z,23.60
2018-08-03T06:49:20.338Z,23.80
2018-08-03T06:54:23.537Z,23.90
2018-08-03T06:59:26.722Z,24.10
2018-08-03T07:09:33.986Z,24.40
2018-08-03T07:14:37.310Z,24.50
2018-08-03T07:19:41.661Z,24.60
2018-08-03T07:24:46.355Z,24.70
2018-08-03T07:29:50.250Z,24.80
2018-08-03T07:34:54.118Z,25.10
2018-08-03T07:39:57.540Z,25.30
2018-08-03T07:45:00.744Z,25.40
2018-08-03T07:50:03.922Z,25.60
2018-08-03T07:55:07.153Z,26.00
2018-08-03T08:00:10.333Z,26.20
2018-08-03T08:05:13.517Z,26.50
2018-08-03T08:10:16.690Z,26.80
2018-08-03T08:15:19.978Z,27.00
2018-08-03T08:20:23.149Z,27.30
2018-08-03T08:25:26.358Z,27.50
2018-08-03T08:30:29.589Z,27.60
2018-08-03T08:35:32.780Z,27.80
2018-08-03T08:40:36.029Z,27.90
2018-08-03T08:45:39.235Z,28.10
2018-08-03T08:50:42.426Z,28.40
2018-08-03T08:55:45.682Z,28.50
2018-08-03T09:00:48.929Z,28.70
2018-08-03T09:05:52.146Z,28.70
2018-08-03T09:10:55.413Z,28.90
2018-08-03T09:15:58.653Z,29.20
2018-08-03T09:21:01.851Z,29.20
2018-08-03T09:26:05.054Z,29.30
2018-08-03T09:31:08.416Z,29.50
2018-08-03T09:36:11.564Z,29.50
2018-08-03T09:41:14.829Z,29.60
2018-08-03T09:46:19.113Z,29.60
2018-08-03T09:51:23.118Z,29.80
2018-08-03T09:56:26.339Z,29.90
2018-08-03T10:01:29.519Z,30.20
2018-08-03T10:06:32.718Z,30.10
2018-08-03T10:11:35.977Z,30.30
2018-08-03T10:16:39.174Z,30.50
2018-08-03T10:21:42.471Z,30.30
2018-08-03T10:26:45.727Z,30.50
2018-08-03T10:31:49.960Z,30.50
2018-08-03T10:36:53.134Z,30.90
2018-08-03T10:41:56.337Z,31.20
2018-08-03T10:46:59.560Z,31.40
2018-08-03T10:52:02.730Z,31.50
2018-08-03T10:57:06.522Z,31.90
2018-08-03T11:02:09.974Z,31.90
2018-08-03T11:07:13.219Z,31.90
2018-08-03T11:12:16.417Z,31.80
2018-08-03T11:17:20.347Z,32.00
2018-08-03T11:22:23.581Z,31.80
2018-08-03T11:27:26.777Z,32.00
2018-08-03T11:32:29.986Z,32.50
2018-08-03T11:37:33.285Z,32.70
2018-08-03T11:42:36.521Z,32.50
2018-08-03T11:47:39.746Z,32.50
2018-08-03T11:52:43.642Z,32.40
2018-08-03T11:57:46.875Z,32.60
2018-08-03T12:02:50.081Z,32.90
2018-08-03T12:07:53.303Z,32.80
2018-08-03T12:12:56.621Z,32.70
2018-08-03T12:17:59.915Z,32.60
2018-08-03T12:23:03.178Z,33.00
2018-08-03T12:28:07.530Z,32.80
2018-08-03T12:33:10.770Z,32.70
2018-08-03T12:38:13.934Z,32.90
2018-08-03T12:43:18.079Z,33.20
2018-08-03T12:48:21.205Z,33.50
2018-08-03T12:53:24.464Z,33.40
2018-08-03T12:58:27.697Z,33.30
2018-08-03T13:03:30.942Z,33.60
2018-08-03T13:08:34.164Z,33.80
2018-08-03T13:13:38.365Z,33.80
2018-08-03T13:18:41.525Z,33.70
2018-08-03T13:23:52.245Z,33.80
2018-08-03T13:28:56.561Z,33.80
2018-08-03T13:33:59.811Z,33.60
2018-08-03T13:39:04.570Z,33.60
2018-08-03T13:44:07.737Z,33.40
2018-08-03T13:49:10.907Z,33.60
2018-08-03T13:54:14.230Z,33.60
2018-08-03T13:59:17.483Z,33.80
2018-08-03T14:04:20.998Z,33.70
2018-08-03T14:09:24.086Z,33.70
2018-08-03T14:14:27.338Z,33.70
2018-08-03T14:19:30.537Z,33.70
2018-08-03T14:24:34.052Z,33.80
2018-08-03T14:29:37.269Z,33.90
2018-08-03T14:34:41.157Z,33.80
2018-08-03T14:39:44.343Z,33.60
2018-08-03T14:44:47.541Z,33.60
2018-08-03T14:49:50.739Z,33.70
2018-08-03T14:54:53.925Z,33.80
2018-08-03T14:59:58.959Z,33.70
2018-08-03T15:05:03.006Z,33.90
2018-08-03T15:10:06.449Z,33.70
2018-08-03T15:15:09.830Z,33.70
2018-08-03T15:20:13.089Z,33.70
2018-08-03T15:25:16.273Z,33.70
2018-08-03T15:40:29.011Z,33.80
2018-08-03T15:45:32.427Z,33.80
2018-08-03T15:50:35.708Z,33.60
2018-08-03T15:55:38.966Z,33.60
2018-08-03T16:00:42.213Z,33.60
2018-08-03T16:05:45.942Z,33.60
2018-08-03T16:10:49.282Z,33.60
2018-08-03T16:15:52.680Z,33.60
2018-08-03T16:20:56.724Z,33.60
2018-08-03T16:25:59.961Z,33.50
2018-08-03T16:31:03.152Z,33.50
2018-08-03T16:36:06.357Z,33.60
2018-08-03T16:41:09.749Z,33.50
2018-08-03T16:46:12.943Z,33.40
2018-08-03T16:51:16.105Z,33.30
2018-08-03T16:56:19.330Z,33.30
2018-08-03T17:01:22.592Z,33.20
2018-08-03T17:06:26.022Z,33.30
2018-08-03T17:11:29.225Z,33.20
2018-08-03T17:16:32.403Z,33.10
2018-08-03T17:21:35.894Z,33.00
2018-08-03T17:26:39.122Z,32.90
2018-08-03T17:31:44.314Z,32.80
2018-08-03T17:36:47.606Z,32.60
2018-08-03T17:41:50.801Z,32.50
2018-08-03T17:46:54.209Z,32.50
2018-08-03T17:51:57.378Z,32.40
2018-08-03T17:57:00.574Z,32.40
2018-08-03T18:02:03.893Z,32.30
2018-08-03T18:07:07.154Z,32.30
2018-08-03T18:12:10.346Z,32.20
2018-08-03T18:17:13.588Z,32.10
2018-08-03T18:22:16.852Z,32.10
2018-08-03T18:27:20.193Z,32.00
2018-08-03T18:32:23.428Z,31.90
2018-08-03T18:37:26.721Z,31.80
2018-08-03T18:42:29.968Z,31.70
2018-08-03T18:47:33.164Z,31.50
2018-08-03T18:52:36.430Z,31.40
2018-08-03T18:57:39.628Z,31.30
2018-08-03T19:02:42.840Z,31.10
2018-08-03T19:07:46.179Z,30.90
2018-08-03T19:12:50.256Z,30.70
2018-08-03T19:17:53.466Z,30.50
2018-08-03T19:22:56.733Z,30.40
2018-08-03T19:27:59.985Z,30.30
2018-08-03T19:33:03.202Z,30.10
2018-08-03T19:38:06.515Z,30.00
2018-08-03T19:43:10.218Z,29.80
2018-08-03T19:48:13.685Z,29.60
2018-08-03T19:53:30.177Z,29.50
2018-08-03T19:58:34.031Z,29.30
2018-08-03T20:03:37.202Z,29.20
2018-08-03T20:08:40.430Z,29.10
2018-08-03T20:13:43.716Z,29.10
2018-08-03T20:18:46.861Z,29.20
2018-08-03T20:23:50.159Z,29.20
2018-08-03T20:28:53.359Z,29.10
2018-08-03T20:33:56.590Z,28.80
2018-08-03T20:38:59.760Z,28.80
2018-08-03T20:44:02.925Z,28.80
2018-08-03T20:54:15.721Z,28.70
2018-08-03T20:59:18.969Z,28.40
2018-08-03T21:04:22.185Z,28.50
2018-08-03T21:09:25.341Z,28.40
2018-08-03T21:14:28.526Z,28.30
2018-08-03T21:19:31.814Z,28.10
2018-08-03T21:24:35.590Z,28.00
2018-08-03T21:29:38.767Z,28.00
2018-08-03T21:34:42.273Z,28.00
2018-08-03T21:39:45.467Z,27.90
2018-08-03T21:44:48.789Z,27.90
2018-08-03T21:49:52.001Z,28.00
2018-08-03T21:54:55.193Z,27.90
2018-08-03T21:59:58.549Z,27.90
2018-08-03T22:05:01.729Z,27.80
2018-08-03T22:10:05.502Z,27.60
2018-08-03T22:15:08.780Z,27.50
2018-08-03T22:20:12.078Z,27.50
2018-08-03T22:25:15.273Z,27.50
2018-08-03T22:30:18.434Z,27.50
2018-08-03T22:35:21.615Z,27.40
2018-08-03T22:40:24.821Z,27.40
2018-08-03T22:45:28.019Z,27.40
2018-08-03T22:50:31.189Z,27.20
2018-08-03T22:55:34.528Z,27.10
2018-08-03T23:00:37.706Z,27.00
2018-08-03T23:05:40.881Z,26.90
2018-08-03T23:10:44.048Z,27.00
2018-08-03T23:15:47.220Z,26.90
2018-08-03T23:20:50.387Z,26.70
2018-08-03T23:25:53.569Z,26.60
2018-08-03T23:30:56.762Z,26.50
2018-08-03T23:36:04.063Z,26.40
2018-08-03T23:41:07.321Z,26.50
2018-08-03T23:46:10.601Z,26.40
2018-08-03T23:51:13.807Z,26.30
2018-08-03T23:56:17.022Z,26.20
